KPCM

Plant City Airport

Plant City, Florida, USA
METAR KPCM 221835Z AUTO 09011G20KT 10SM BKN050 23/11 A3035 RMK AO2
Observed Flight Rules
Jan-22 @ 18:35 UTC (17 minutes ago) Visual Flight Rules
Wind Visibility Clouds
90° at 11 knots
 Gusting to 20 knots
10 miles
  • Broken at 5,000' AGL
Temperatures Readings
Current 23°C / 73°F
Dewpoint 11°C / 52°F
Humidity 47%
Altimeter 30.35" Hg
Pressure 1027.82 hPa
Elevation 47
METAR KPCM 221835Z AUTO 09011G20KT 10SM BKN050 23/11 A3035 RMK AO2
Observed Flight Rules
Jan-22 @ 18:35 UTC
(17 minutes ago)
VFR
Wind Visibility
90° at 11 knots
 Gusting to 20 knots
10 miles
Clouds
  • Broken at 5,000' AGL
Temperature Dewpoint
23°C / 73°F 11°C / 52°F
Humidity Altimeter Pressure
47% 30.35" Hg 1027.82 hPa